createdAt,value
2023-02-25T00:01:14.761Z,9.67
2023-02-25T00:03:44.989Z,9.50
2023-02-25T00:06:14.606Z,11.30
2023-02-25T00:08:45.459Z,11.37
2023-02-25T00:11:14.939Z,12.07
2023-02-25T00:13:44.095Z,11.03
2023-02-25T00:16:13.415Z,10.10
2023-02-25T00:18:44.417Z,10.27
2023-02-25T00:21:16.121Z,10.57
2023-02-25T00:23:45.915Z,9.67
2023-02-25T00:26:14.689Z,10.13
2023-02-25T00:28:43.213Z,9.87
2023-02-25T00:31:13.625Z,10.30
2023-02-25T00:33:42.218Z,9.67
2023-02-25T00:36:12.945Z,10.03
2023-02-25T00:38:42.318Z,10.13
2023-02-25T00:41:12.750Z,9.33
2023-02-25T00:43:42.215Z,9.30
2023-02-25T00:46:10.663Z,9.40
2023-02-25T00:48:38.813Z,8.63
2023-02-25T00:51:08.944Z,9.97
2023-02-25T00:53:37.865Z,9.27
2023-02-25T00:56:09.138Z,8.93
2023-02-25T00:58:37.769Z,8.17
2023-02-25T01:01:08.397Z,9.10
2023-02-25T01:03:36.301Z,9.07
2023-02-25T01:06:04.453Z,8.83
2023-02-25T01:08:33.120Z,8.80
2023-02-25T01:11:01.033Z,8.87
2023-02-25T01:13:30.313Z,9.23
2023-02-25T01:15:58.230Z,8.73
2023-02-25T01:18:26.255Z,8.83
2023-02-25T01:20:54.115Z,9.03
2023-02-25T01:23:23.382Z,8.60
2023-02-25T01:25:51.273Z,8.47
2023-02-25T01:28:19.814Z,8.40
2023-02-25T01:30:49.293Z,8.70
2023-02-25T01:33:17.327Z,9.27
2023-02-25T01:35:45.222Z,8.73
2023-02-25T01:38:13.139Z,8.40
2023-02-25T01:40:41.089Z,7.93
2023-02-25T01:43:15.868Z,8.10
2023-02-25T01:45:45.368Z,8.17
2023-02-25T01:48:19.759Z,8.27
2023-02-25T01:50:51.797Z,8.27
2023-02-25T01:53:23.048Z,8.07
2023-02-25T01:55:51.544Z,7.83
2023-02-25T01:58:19.931Z,7.87
2023-02-25T02:00:48.593Z,8.53
2023-02-25T02:03:17.961Z,7.57
2023-02-25T02:05:56.485Z,7.60
2023-02-25T02:08:26.420Z,7.97
2023-02-25T02:10:55.688Z,8.43
2023-02-25T02:13:24.098Z,7.80
2023-02-25T02:16:00.859Z,7.67
2023-02-25T02:18:36.361Z,6.90
2023-02-25T02:21:19.640Z,7.73
2023-02-25T02:24:08.095Z,6.90
2023-02-25T02:26:54.561Z,7.77
2023-02-25T02:30:01.647Z,6.80
2023-02-25T02:32:37.325Z,7.17
2023-02-25T02:35:14.982Z,6.77
2023-02-25T02:37:53.533Z,6.87
2023-02-25T02:40:31.107Z,7.13
2023-02-25T02:43:09.716Z,7.03
2023-02-25T02:45:44.962Z,7.10
2023-02-25T02:48:18.124Z,7.63
2023-02-25T02:50:49.065Z,7.27
2023-02-25T02:53:21.456Z,7.17
2023-02-25T02:55:52.716Z,7.43
2023-02-25T02:58:25.153Z,7.60
2023-02-25T03:00:59.151Z,7.23
2023-02-25T03:03:37.299Z,7.50
2023-02-25T03:06:08.933Z,6.97
2023-02-25T03:08:44.827Z,6.50
2023-02-25T03:11:12.973Z,7.20
2023-02-25T03:13:40.930Z,7.20
2023-02-25T03:16:13.625Z,6.77
2023-02-25T03:18:51.063Z,7.83
2023-02-25T03:21:22.788Z,7.30
2023-02-25T03:23:52.567Z,7.80
2023-02-25T03:26:27.805Z,7.27
2023-02-25T03:28:55.859Z,7.07
2023-02-25T03:31:30.552Z,7.70
2023-02-25T03:34:04.156Z,6.87
2023-02-25T03:36:35.409Z,8.40
2023-02-25T03:39:09.897Z,7.27
2023-02-25T03:41:40.930Z,8.30
2023-02-25T03:44:13.678Z,8.07
2023-02-25T03:46:45.194Z,7.30
2023-02-25T03:49:20.500Z,7.47
2023-02-25T03:51:51.161Z,7.63
2023-02-25T03:54:19.109Z,8.03
2023-02-25T03:56:50.055Z,7.47
2023-02-25T03:59:19.304Z,7.63
2023-02-25T04:01:50.567Z,8.13
2023-02-25T04:04:19.879Z,8.60
2023-02-25T04:06:47.788Z,8.20
2023-02-25T04:09:15.744Z,7.60
2023-02-25T04:11:43.699Z,7.37
2023-02-25T04:14:11.595Z,7.53
2023-02-25T04:16:39.472Z,8.20
2023-02-25T04:19:07.430Z,7.70
2023-02-25T04:21:38.082Z,8.73
2023-02-25T04:24:07.139Z,7.97
2023-02-25T04:26:35.872Z,7.80
2023-02-25T04:29:04.414Z,7.87
2023-02-25T04:31:32.849Z,7.50
2023-02-25T04:34:00.829Z,8.23
2023-02-25T04:36:31.686Z,7.43
2023-02-25T04:39:02.846Z,7.87
2023-02-25T04:41:32.595Z,7.10
2023-02-25T04:44:00.951Z,7.60
2023-02-25T04:46:28.926Z,8.07
2023-02-25T04:48:57.179Z,7.07
2023-02-25T04:51:25.030Z,7.53
2023-02-25T04:53:53.003Z,7.37
2023-02-25T04:56:22.610Z,6.60
2023-02-25T04:58:50.673Z,7.67
2023-02-25T05:01:18.838Z,7.53
2023-02-25T05:03:46.935Z,7.40
2023-02-25T05:06:14.838Z,7.70
2023-02-25T05:08:42.815Z,7.50
2023-02-25T05:11:10.736Z,7.70
2023-02-25T05:13:39.979Z,11.13
2023-02-25T05:16:10.503Z,7.77
2023-02-25T05:18:39.047Z,8.33
2023-02-25T05:21:10.468Z,7.90
2023-02-25T05:23:38.314Z,7.57
2023-02-25T05:26:06.360Z,7.70
2023-02-25T05:28:34.250Z,7.57
2023-02-25T05:31:06.166Z,7.63
2023-02-25T05:33:34.288Z,7.93
2023-02-25T05:36:02.198Z,7.27
2023-02-25T05:38:30.161Z,8.37
2023-02-25T05:41:00.562Z,8.37
2023-02-25T05:43:28.472Z,8.07
2023-02-25T05:45:57.599Z,8.60
2023-02-25T05:48:27.234Z,8.93
2023-02-25T05:51:02.643Z,8.30
2023-02-25T05:53:30.684Z,8.40
2023-02-25T05:55:58.614Z,8.03
2023-02-25T05:58:26.840Z,9.27
2023-02-25T06:00:54.772Z,8.10
2023-02-25T06:03:22.735Z,8.87
2023-02-25T06:05:53.195Z,9.20
2023-02-25T06:08:21.011Z,8.27
2023-02-25T06:10:49.092Z,9.03
2023-02-25T06:13:17.034Z,8.97
2023-02-25T06:15:47.312Z,10.03
2023-02-25T06:18:16.430Z,10.00
2023-02-25T06:20:44.453Z,9.27
2023-02-25T06:23:13.778Z,8.73
2023-02-25T06:25:41.698Z,9.50
2023-02-25T06:28:09.650Z,9.10
2023-02-25T06:30:37.969Z,8.53
2023-02-25T06:33:05.895Z,8.87
2023-02-25T06:35:36.147Z,8.40
2023-02-25T06:38:04.204Z,8.50
2023-02-25T06:40:34.242Z,8.90
2023-02-25T06:43:02.116Z,9.17
2023-02-25T06:45:30.261Z,9.53
2023-02-25T06:47:58.734Z,9.03
2023-02-25T06:50:26.678Z,8.63
2023-02-25T06:52:54.696Z,8.57
2023-02-25T06:55:22.578Z,8.87
2023-02-25T06:57:54.745Z,8.60
2023-02-25T07:00:23.336Z,9.80
2023-02-25T07:02:51.484Z,8.70
2023-02-25T07:05:19.529Z,8.83
2023-02-25T07:07:47.395Z,8.93
2023-02-25T07:10:15.331Z,8.37
2023-02-25T07:12:43.281Z,7.57
2023-02-25T07:15:12.761Z,7.97
2023-02-25T07:17:40.684Z,6.80
2023-02-25T07:20:09.893Z,6.63
2023-02-25T07:22:37.812Z,7.67
2023-02-25T07:25:07.487Z,7.50
2023-02-25T07:27:35.426Z,6.93
2023-02-25T07:30:03.539Z,7.80
2023-02-25T07:32:34.051Z,7.03
2023-02-25T07:35:01.958Z,7.30
2023-02-25T07:37:29.780Z,8.13
2023-02-25T07:40:00.793Z,6.93
2023-02-25T07:42:28.924Z,6.80
2023-02-25T07:44:56.903Z,8.60
2023-02-25T07:47:24.847Z,6.30
2023-02-25T07:49:54.125Z,6.43
2023-02-25T07:52:22.061Z,6.97
2023-02-25T07:54:50.012Z,6.77
2023-02-25T07:57:17.940Z,7.17
2023-02-25T07:59:45.864Z,8.02
2023-02-25T08:02:14.214Z,8.50
2023-02-25T08:04:42.381Z,7.75
2023-02-25T08:07:11.639Z,6.18
2023-02-25T08:09:39.708Z,5.95
2023-02-25T08:12:07.559Z,6.80
2023-02-25T08:14:35.536Z,6.15
2023-02-25T08:17:03.421Z,6.38
2023-02-25T08:19:31.403Z,5.97
2023-02-25T08:22:00.308Z,6.20
2023-02-25T08:24:29.556Z,6.20
2023-02-25T08:26:57.503Z,7.13
2023-02-25T08:29:25.386Z,6.40
2023-02-25T08:31:54.001Z,6.80
2023-02-25T08:34:22.114Z,6.25
2023-02-25T08:36:49.986Z,6.32
2023-02-25T08:39:18.508Z,7.53
2023-02-25T08:41:47.816Z,6.82
2023-02-25T08:44:15.690Z,7.15
2023-02-25T08:46:43.626Z,5.95
2023-02-25T08:49:11.560Z,6.72
2023-02-25T08:51:40.756Z,6.97
2023-02-25T08:54:10.529Z,8.13
2023-02-25T08:56:40.342Z,7.40
2023-02-25T08:59:10.170Z,8.35
2023-02-25T09:01:46.291Z,8.38
2023-02-25T09:04:15.761Z,8.20
2023-02-25T09:06:47.489Z,7.50
2023-02-25T09:09:15.913Z,8.45
2023-02-25T09:11:44.781Z,8.98
2023-02-25T09:14:14.789Z,13.35
2023-02-25T09:16:42.810Z,10.23
2023-02-25T09:19:12.600Z,9.60
2023-02-25T09:21:41.337Z,8.85
2023-02-25T09:24:10.327Z,8.23
2023-02-25T09:26:38.894Z,8.13
2023-02-25T09:29:08.254Z,8.18
2023-02-25T09:31:39.789Z,8.55
2023-02-25T09:34:10.229Z,7.53
2023-02-25T09:36:38.430Z,8.25
2023-02-25T09:39:10.311Z,8.60
2023-02-25T09:41:47.993Z,8.45
2023-02-25T09:44:19.435Z,9.27
2023-02-25T09:46:52.468Z,9.80
2023-02-25T09:49:27.268Z,8.07
2023-02-25T09:52:02.130Z,10.35
2023-02-25T09:54:35.975Z,8.35
2023-02-25T09:57:07.449Z,7.03
2023-02-25T09:59:35.770Z,6.78
2023-02-25T10:02:22.272Z,7.55
2023-02-25T10:05:07.181Z,8.10
2023-02-25T10:07:37.749Z,7.53
2023-02-25T10:10:14.552Z,8.30
2023-02-25T10:12:51.749Z,7.60
2023-02-25T10:15:33.534Z,11.05
2023-02-25T10:18:15.338Z,7.70
2023-02-25T10:21:07.758Z,8.32
2023-02-25T10:23:48.804Z,7.82
2023-02-25T10:26:20.929Z,7.60
2023-02-25T10:28:52.170Z,6.65
2023-02-25T10:31:23.368Z,6.75
2023-02-25T10:33:54.902Z,5.97
2023-02-25T10:36:28.674Z,6.93
2023-02-25T10:38:57.085Z,6.47
2023-02-25T10:41:26.783Z,5.93
2023-02-25T10:43:56.019Z,6.70
2023-02-25T10:46:31.396Z,6.47
2023-02-25T10:49:02.512Z,6.28
2023-02-25T10:51:30.730Z,5.53
2023-02-25T10:54:07.553Z,5.68
2023-02-25T10:56:42.753Z,5.45
2023-02-25T10:59:29.422Z,5.18
2023-02-25T11:02:00.232Z,5.85
2023-02-25T11:04:35.771Z,5.90
2023-02-25T11:07:24.069Z,7.75
2023-02-25T11:10:09.330Z,6.78
2023-02-25T11:12:43.132Z,6.25
2023-02-25T11:15:43.809Z,6.47
2023-02-25T11:18:19.526Z,5.30
2023-02-25T11:20:54.712Z,4.55
2023-02-25T11:23:28.156Z,5.00
2023-02-25T11:25:56.452Z,4.20
2023-02-25T11:28:30.218Z,3.80
2023-02-25T11:31:07.243Z,3.80
2023-02-25T11:33:38.719Z,3.55
2023-02-25T11:36:09.121Z,4.13
2023-02-25T11:38:39.613Z,5.20
2023-02-25T11:41:18.758Z,4.07
2023-02-25T11:43:46.734Z,3.90
2023-02-25T11:46:23.198Z,4.00
2023-02-25T11:48:54.230Z,3.10
2023-02-25T11:51:30.576Z,4.13
2023-02-25T11:54:12.634Z,4.30
2023-02-25T11:56:48.498Z,3.58
2023-02-25T11:59:30.220Z,3.75
2023-02-25T12:02:18.100Z,3.67
2023-02-25T12:05:07.949Z,5.10
2023-02-25T12:08:13.818Z,4.05
2023-02-25T12:11:09.752Z,4.13
2023-02-25T12:14:08.504Z,3.80
2023-02-25T12:17:08.853Z,4.15
2023-02-25T12:20:27.684Z,4.20
2023-02-25T12:23:41.273Z,4.18
2023-02-25T12:26:15.684Z,4.07
2023-02-25T12:29:06.384Z,4.00
2023-02-25T12:31:58.121Z,3.55
2023-02-25T12:35:01.190Z,3.40
2023-02-25T12:37:46.784Z,3.35
2023-02-25T12:40:35.120Z,3.08
2023-02-25T12:43:19.278Z,3.78
2023-02-25T12:46:20.648Z,2.78
2023-02-25T12:49:15.249Z,4.00
2023-02-25T12:52:04.038Z,3.30
2023-02-25T12:55:08.158Z,2.97
2023-02-25T12:57:49.913Z,3.15
2023-02-25T13:00:35.526Z,3.00
2023-02-25T13:03:25.682Z,2.85
2023-02-25T13:06:07.673Z,3.45
2023-02-25T13:08:53.469Z,3.30
2023-02-25T13:11:34.610Z,2.83
2023-02-25T13:14:23.033Z,3.47
2023-02-25T13:17:10.004Z,2.72
2023-02-25T13:19:55.790Z,2.85
2023-02-25T13:22:41.211Z,2.97
2023-02-25T13:25:15.972Z,2.83
2023-02-25T13:28:00.756Z,2.50
2023-02-25T13:30:39.249Z,2.92
2023-02-25T13:33:29.649Z,2.40
2023-02-25T13:36:09.369Z,3.10
2023-02-25T13:39:02.124Z,2.72
2023-02-25T13:41:42.854Z,2.45
2023-02-25T13:44:23.580Z,2.42
2023-02-25T13:47:11.271Z,2.70
2023-02-25T13:49:58.937Z,2.28
2023-02-25T13:52:31.619Z,3.08
2023-02-25T13:55:25.069Z,3.08
2023-02-25T13:58:13.904Z,2.35
2023-02-25T14:01:22.489Z,3.25
2023-02-25T14:04:39.086Z,2.63
2023-02-25T14:07:30.393Z,2.85
2023-02-25T14:10:13.409Z,2.65
2023-02-25T14:12:54.389Z,3.65
2023-02-25T14:15:36.835Z,3.10
2023-02-25T14:18:46.670Z,3.17
2023-02-25T14:21:37.444Z,3.13
2023-02-25T14:24:13.070Z,2.70
2023-02-25T14:26:51.911Z,2.60
2023-02-25T14:29:29.782Z,2.88
2023-02-25T14:32:16.265Z,2.53
2023-02-25T14:34:56.090Z,2.80
2023-02-25T14:37:35.837Z,2.67
2023-02-25T14:40:23.982Z,3.25
2023-02-25T14:43:11.150Z,2.40
2023-02-25T14:45:44.579Z,3.67
2023-02-25T14:48:18.062Z,3.10
2023-02-25T14:50:51.737Z,3.35
2023-02-25T14:54:08.434Z,2.67
2023-02-25T14:56:49.048Z,3.00
2023-02-25T14:59:38.594Z,3.35
2023-02-25T15:02:31.198Z,3.08
2023-02-25T15:05:30.260Z,3.33
2023-02-25T15:08:24.634Z,3.00
2023-02-25T15:11:08.874Z,3.47
2023-02-25T15:14:12.747Z,3.30
2023-02-25T15:17:00.449Z,3.15
2023-02-25T15:19:53.443Z,2.92
2023-02-25T15:22:25.031Z,3.22
2023-02-25T15:24:54.118Z,3.10
2023-02-25T15:27:50.047Z,2.92
2023-02-25T15:30:22.858Z,3.22
2023-02-25T15:33:07.765Z,3.30
2023-02-25T15:35:59.996Z,3.08
2023-02-25T15:38:43.246Z,3.38
2023-02-25T15:41:40.836Z,3.28
2023-02-25T15:44:40.086Z,3.97
2023-02-25T15:47:25.783Z,3.05
2023-02-25T15:49:55.328Z,3.40
2023-02-25T15:52:52.706Z,3.25
2023-02-25T15:55:33.480Z,3.42
2023-02-25T15:58:01.383Z,3.78
2023-02-25T16:01:02.721Z,3.63
2023-02-25T16:03:43.126Z,3.10
2023-02-25T16:06:18.974Z,3.83
2023-02-25T16:09:02.519Z,3.60
2023-02-25T16:11:37.735Z,3.20
2023-02-25T16:14:09.131Z,3.35
2023-02-25T16:16:42.797Z,3.15
2023-02-25T16:19:17.815Z,3.80
2023-02-25T16:21:50.217Z,3.58
2023-02-25T16:24:19.804Z,2.88
2023-02-25T16:26:58.908Z,3.58
2023-02-25T16:29:55.597Z,3.05
2023-02-25T16:32:35.665Z,3.75
2023-02-25T16:35:11.184Z,2.90
2023-02-25T16:37:45.881Z,3.75
2023-02-25T16:40:18.425Z,3.10
2023-02-25T16:42:47.256Z,4.18
2023-02-25T16:45:25.958Z,3.20
2023-02-25T16:48:01.177Z,3.60
2023-02-25T16:50:32.536Z,2.97
2023-02-25T16:53:01.545Z,3.55
2023-02-25T16:55:33.600Z,3.28
2023-02-25T16:58:03.167Z,2.60
2023-02-25T17:00:31.159Z,3.22
2023-02-25T17:03:01.588Z,3.85
2023-02-25T17:05:33.551Z,3.03
2023-02-25T17:08:04.644Z,3.60
2023-02-25T17:10:34.773Z,3.05
2023-02-25T17:13:04.744Z,3.75
2023-02-25T17:15:35.922Z,3.15
2023-02-25T17:18:09.751Z,3.55
2023-02-25T17:20:39.227Z,2.63
2023-02-25T17:23:11.377Z,3.13
2023-02-25T17:25:42.080Z,3.05
2023-02-25T17:28:20.651Z,3.33
2023-02-25T17:30:48.559Z,3.17
2023-02-25T17:33:26.320Z,3.33
2023-02-25T17:35:58.388Z,2.97
2023-02-25T17:38:29.084Z,3.22
2023-02-25T17:40:59.184Z,3.45
2023-02-25T17:43:39.785Z,2.83
2023-02-25T17:46:18.737Z,3.47
2023-02-25T17:48:53.026Z,3.20
2023-02-25T17:51:31.201Z,3.30
2023-02-25T17:54:05.046Z,2.85
2023-02-25T17:56:34.508Z,3.35
2023-02-25T17:59:05.797Z,3.38
2023-02-25T18:01:48.149Z,3.33
2023-02-25T18:04:25.491Z,3.00
2023-02-25T18:06:55.524Z,3.03
2023-02-25T18:09:40.175Z,3.92
2023-02-25T18:12:15.574Z,3.03
2023-02-25T18:14:45.804Z,3.60
2023-02-25T18:17:22.663Z,3.10
2023-02-25T18:19:50.952Z,3.28
2023-02-25T18:22:33.976Z,3.25
2023-02-25T18:25:03.602Z,3.83
2023-02-25T18:27:33.496Z,3.50
2023-02-25T18:30:18.133Z,3.13
2023-02-25T18:32:46.210Z,2.90
2023-02-25T18:35:15.186Z,2.50
2023-02-25T18:37:45.703Z,4.10
2023-02-25T18:40:17.616Z,3.95
2023-02-25T18:42:45.608Z,4.00
2023-02-25T18:45:16.227Z,3.70
2023-02-25T18:47:44.172Z,3.40
2023-02-25T18:50:12.910Z,4.05
2023-02-25T18:52:42.046Z,4.07
2023-02-25T18:55:18.433Z,3.67
2023-02-25T18:57:46.651Z,3.72
2023-02-25T19:00:16.637Z,3.40
2023-02-25T19:02:48.286Z,3.45
2023-02-25T19:05:17.102Z,3.75
2023-02-25T19:07:46.178Z,3.15
2023-02-25T19:10:20.353Z,3.42
2023-02-25T19:12:50.822Z,3.95
2023-02-25T19:15:21.115Z,3.58
2023-02-25T19:17:50.108Z,4.15
2023-02-25T19:20:20.015Z,3.40
2023-02-25T19:22:49.645Z,3.65
2023-02-25T19:25:22.844Z,3.35
2023-02-25T19:27:51.212Z,3.63
2023-02-25T19:30:21.319Z,3.85
2023-02-25T19:32:49.245Z,3.28
2023-02-25T19:35:17.532Z,2.92
2023-02-25T19:37:45.894Z,3.55
2023-02-25T19:40:16.149Z,3.15
2023-02-25T19:42:46.202Z,3.40
2023-02-25T19:45:17.634Z,3.05
2023-02-25T19:47:46.203Z,3.63
2023-02-25T19:50:15.592Z,3.22
2023-02-25T19:52:44.798Z,3.00
2023-02-25T19:55:14.359Z,3.40
2023-02-25T19:57:42.878Z,2.83
2023-02-25T20:00:14.970Z,3.30
2023-02-25T20:02:43.162Z,2.72
2023-02-25T20:05:11.807Z,3.20
2023-02-25T20:07:39.824Z,3.50
2023-02-25T20:10:11.033Z,3.42
2023-02-25T20:12:39.251Z,3.28
2023-02-25T20:15:08.442Z,3.10
2023-02-25T20:17:39.304Z,3.58
2023-02-25T20:20:08.471Z,3.17
2023-02-25T20:22:37.022Z,3.45
2023-02-25T20:25:05.481Z,3.20
2023-02-25T20:27:36.895Z,3.50
2023-02-25T20:30:06.278Z,3.25
2023-02-25T20:32:34.244Z,3.72
2023-02-25T20:35:04.220Z,2.90
2023-02-25T20:37:37.255Z,3.42
2023-02-25T20:40:08.197Z,3.38
2023-02-25T20:42:36.352Z,3.63
2023-02-25T20:45:06.026Z,3.13
2023-02-25T20:47:36.503Z,3.20
2023-02-25T20:50:07.152Z,3.65
2023-02-25T20:52:35.299Z,3.30
2023-02-25T20:55:03.706Z,3.05
2023-02-25T20:57:32.773Z,3.80
2023-02-25T21:00:00.713Z,3.70
2023-02-25T21:02:28.645Z,3.75
2023-02-25T21:04:56.548Z,3.42
2023-02-25T21:07:25.737Z,3.25
2023-02-25T21:09:53.559Z,3.15
2023-02-25T21:12:21.377Z,3.13
2023-02-25T21:14:49.305Z,3.20
2023-02-25T21:17:17.175Z,2.88
2023-02-25T21:19:45.074Z,3.30
2023-02-25T21:22:12.989Z,2.88
2023-02-25T21:24:42.251Z,3.83
2023-02-25T21:27:10.117Z,3.13
2023-02-25T21:29:38.601Z,3.85
2023-02-25T21:32:06.593Z,2.55
2023-02-25T21:34:34.538Z,2.65
2023-02-25T21:37:02.387Z,2.85
2023-02-25T21:39:30.195Z,3.15
2023-02-25T21:41:59.435Z,3.40
2023-02-25T21:44:27.673Z,2.95
2023-02-25T21:46:55.562Z,3.30
2023-02-25T21:49:23.577Z,3.05
2023-02-25T21:51:51.521Z,3.05
2023-02-25T21:54:19.487Z,3.10
2023-02-25T21:56:47.668Z,3.28
2023-02-25T21:59:17.237Z,3.03
2023-02-25T22:01:45.276Z,3.72
2023-02-25T22:04:13.125Z,3.10
2023-02-25T22:06:43.132Z,3.60
2023-02-25T22:09:10.975Z,3.05
2023-02-25T22:11:39.666Z,2.92
2023-02-25T22:14:09.084Z,2.80
2023-02-25T22:16:40.050Z,2.75
2023-02-25T22:19:07.968Z,3.65
2023-02-25T22:21:37.799Z,3.03
2023-02-25T22:24:06.858Z,3.70
2023-02-25T22:26:36.503Z,3.30
2023-02-25T22:29:07.656Z,3.58
2023-02-25T22:31:35.985Z,2.97
2023-02-25T22:34:05.863Z,2.60
2023-02-25T22:36:33.855Z,3.33
2023-02-25T22:39:05.396Z,2.90
2023-02-25T22:41:33.271Z,3.05
2023-02-25T22:44:02.335Z,2.55
2023-02-25T22:46:31.244Z,2.60
2023-02-25T22:48:59.718Z,2.70
2023-02-25T22:51:31.118Z,2.55
2023-02-25T22:53:59.715Z,2.85
2023-02-25T22:56:28.283Z,3.00
2023-02-25T22:58:56.530Z,3.72
2023-02-25T23:01:25.875Z,2.67
2023-02-25T23:03:55.351Z,2.78
2023-02-25T23:06:37.340Z,2.97
2023-02-25T23:09:11.540Z,2.67
2023-02-25T23:11:41.216Z,2.92
2023-02-25T23:14:09.176Z,2.78
2023-02-25T23:16:40.385Z,2.65
2023-02-25T23:19:10.678Z,2.70
2023-02-25T23:21:39.595Z,2.58
2023-02-25T23:24:09.626Z,3.08
2023-02-25T23:26:42.209Z,2.53
2023-02-25T23:29:12.062Z,2.58
2023-02-25T23:31:44.670Z,3.22
2023-02-25T23:34:14.568Z,2.92
2023-02-25T23:36:44.194Z,3.17
2023-02-25T23:39:13.992Z,3.50
2023-02-25T23:41:44.196Z,3.33
2023-02-25T23:44:13.487Z,3.63
2023-02-25T23:46:44.081Z,2.80
2023-02-25T23:49:14.925Z,2.90
2023-02-25T23:51:44.526Z,2.80
2023-02-25T23:54:15.871Z,3.30
2023-02-25T23:56:45.301Z,2.83
2023-02-25T23:59:13.594Z,3.25
